sensor_id;sensor_type;location;lat;lon;timestamp;pressure;altitude;pressure_sealevel;temperature;humidity
35892;BME280;21993;42.672;23.296;2023-06-05T00:00:40;95182.69;;;17.35;76.71
35892;BME280;21993;42.672;23.296;2023-06-05T00:03:06;95174.72;;;17.35;76.53
35892;BME280;21993;42.672;23.296;2023-06-05T00:05:33;95174.88;;;17.34;76.93
35892;BME280;21993;42.672;23.296;2023-06-05T00:07:58;95179.19;;;17.35;76.87
35892;BME280;21993;42.672;23.296;2023-06-05T00:10:23;95167.41;;;17.37;76.60
35892;BME280;21993;42.672;23.296;2023-06-05T00:12:49;95176.03;;;17.39;76.16
35892;BME280;21993;42.672;23.296;2023-06-05T00:15:15;95185.34;;;17.35;76.19
35892;BME280;21993;42.672;23.296;2023-06-05T00:17:41;95183.50;;;17.36;76.49
35892;BME280;21993;42.672;23.296;2023-06-05T00:20:07;95180.69;;;17.37;76.72
35892;BME280;21993;42.672;23.296;2023-06-05T00:22:35;95180.69;;;17.37;76.58
35892;BME280;21993;42.672;23.296;2023-06-05T00:25:00;95180.03;;;17.27;77.08
35892;BME280;21993;42.672;23.296;2023-06-05T00:27:25;95181.03;;;17.34;76.69
35892;BME280;21993;42.672;23.296;2023-06-05T00:29:51;95179.84;;;17.21;77.25
35892;BME280;21993;42.672;23.296;2023-06-05T00:32:16;95183.16;;;17.23;77.02
35892;BME280;21993;42.672;23.296;2023-06-05T00:34:42;95183.16;;;17.23;76.43
35892;BME280;21993;42.672;23.296;2023-06-05T00:37:07;95171.72;;;17.22;76.58
35892;BME280;21993;42.672;23.296;2023-06-05T00:39:33;95176.88;;;17.15;75.97
35892;BME280;21993;42.672;23.296;2023-06-05T00:41:58;95176.34;;;17.12;75.90
35892;BME280;21993;42.672;23.296;2023-06-05T00:44:24;95186.97;;;17.12;75.75
35892;BME280;21993;42.672;23.296;2023-06-05T00:46:51;95174.69;;;17.11;75.52
35892;BME280;21993;42.672;23.296;2023-06-05T00:49:18;95175.19;;;17.14;75.55
35892;BME280;21993;42.672;23.296;2023-06-05T00:51:45;95168.22;;;17.13;75.88
35892;BME280;21993;42.672;23.296;2023-06-05T00:54:12;95170.88;;;17.13;76.18
35892;BME280;21993;42.672;23.296;2023-06-05T00:56:40;95167.22;;;17.06;76.35
35892;BME280;21993;42.672;23.296;2023-06-05T00:59:07;95165.41;;;17.07;76.36
35892;BME280;21993;42.672;23.296;2023-06-05T01:01:32;95163.59;;;17.07;76.56
35892;BME280;21993;42.672;23.296;2023-06-05T01:04:00;95156.13;;;17.03;76.74
35892;BME280;21993;42.672;23.296;2023-06-05T01:06:29;95155.13;;;17.04;77.15
35892;BME280;21993;42.672;23.296;2023-06-05T01:08:56;95160.25;;;17.05;77.01
35892;BME280;21993;42.672;23.296;2023-06-05T01:14:08;95150.34;;;17.07;77.19
35892;BME280;21993;42.672;23.296;2023-06-05T01:16:37;95150.97;;;17.01;77.24
35892;BME280;21993;42.672;23.296;2023-06-05T01:19:04;95150.31;;;16.99;77.46
35892;BME280;21993;42.672;23.296;2023-06-05T01:21:31;95145.34;;;17.04;77.10
35892;BME280;21993;42.672;23.296;2023-06-05T01:23:59;95142.50;;;17.06;77.04
35892;BME280;21993;42.672;23.296;2023-06-05T01:26:33;95147.00;;;17.05;76.92
35892;BME280;21993;42.672;23.296;2023-06-05T01:29:04;95138.56;;;17.10;77.42
35892;BME280;21993;42.672;23.296;2023-06-05T01:31:31;95138.38;;;17.03;77.55
35892;BME280;21993;42.672;23.296;2023-06-05T01:34:05;95145.03;;;16.99;77.46
35892;BME280;21993;42.672;23.296;2023-06-05T01:36:34;95141.19;;;17.02;77.53
35892;BME280;21993;42.672;23.296;2023-06-05T01:39:00;95128.41;;;16.97;77.57
35892;BME280;21993;42.672;23.296;2023-06-05T01:41:26;95133.59;;;16.99;77.11
35892;BME280;21993;42.672;23.296;2023-06-05T01:43:53;95121.97;;;16.92;77.17
35892;BME280;21993;42.672;23.296;2023-06-05T01:46:20;95128.59;;;16.96;76.72
35892;BME280;21993;42.672;23.296;2023-06-05T01:48:46;95132.56;;;16.92;76.61
35892;BME280;21993;42.672;23.296;2023-06-05T01:51:12;95127.09;;;16.93;76.27
35892;BME280;21993;42.672;23.296;2023-06-05T01:53:38;95131.41;;;16.86;76.84
35892;BME280;21993;42.672;23.296;2023-06-05T01:56:03;95130.56;;;16.85;76.75
35892;BME280;21993;42.672;23.296;2023-06-05T01:58:31;95135.22;;;16.83;76.54
35892;BME280;21993;42.672;23.296;2023-06-05T02:00:57;95135.38;;;16.82;76.73
35892;BME280;21993;42.672;23.296;2023-06-05T02:03:23;95135.53;;;16.80;76.82
35892;BME280;21993;42.672;23.296;2023-06-05T02:05:48;95132.56;;;16.83;76.55
35892;BME280;21993;42.672;23.296;2023-06-05T02:08:14;95131.03;;;16.81;76.65
35892;BME280;21993;42.672;23.296;2023-06-05T02:10:47;95126.91;;;16.78;76.37
35892;BME280;21993;42.672;23.296;2023-06-05T02:13:12;95133.03;;;16.79;76.62
35892;BME280;21993;42.672;23.296;2023-06-05T02:15:40;95134.53;;;16.73;76.97
35892;BME280;21993;42.672;23.296;2023-06-05T02:18:06;95134.53;;;16.73;76.91
35892;BME280;21993;42.672;23.296;2023-06-05T02:20:33;95133.53;;;16.74;77.20
35892;BME280;21993;42.672;23.296;2023-06-05T02:23:00;95132.72;;;16.74;77.25
35892;BME280;21993;42.672;23.296;2023-06-05T02:25:25;95142.00;;;16.78;77.27
35892;BME280;21993;42.672;23.296;2023-06-05T02:27:54;95131.75;;;16.91;76.96
35892;BME280;21993;42.672;23.296;2023-06-05T02:30:21;95129.38;;;16.80;77.41
35892;BME280;21993;42.672;23.296;2023-06-05T02:32:47;95135.69;;;16.79;77.35
35892;BME280;21993;42.672;23.296;2023-06-05T02:35:13;95134.84;;;16.70;77.80
35892;BME280;21993;42.672;23.296;2023-06-05T02:37:40;95135.50;;;16.72;77.61
35892;BME280;21993;42.672;23.296;2023-06-05T02:40:10;95137.81;;;16.67;77.50
35892;BME280;21993;42.672;23.296;2023-06-05T02:42:36;95135.63;;;16.63;77.79
35892;BME280;21993;42.672;23.296;2023-06-05T02:45:02;95128.19;;;16.66;77.54
35892;BME280;21993;42.672;23.296;2023-06-05T02:47:29;95129.31;;;16.64;77.92
35892;BME280;21993;42.672;23.296;2023-06-05T02:49:54;95128.50;;;16.63;77.57
35892;BME280;21993;42.672;23.296;2023-06-05T02:52:20;95132.31;;;16.60;77.66
35892;BME280;21993;42.672;23.296;2023-06-05T02:54:46;95127.84;;;16.61;77.82
35892;BME280;21993;42.672;23.296;2023-06-05T02:57:12;95133.31;;;16.59;77.92
35892;BME280;21993;42.672;23.296;2023-06-05T02:59:37;95124.69;;;16.57;78.17
35892;BME280;21993;42.672;23.296;2023-06-05T03:02:08;95135.63;;;16.63;78.07
35892;BME280;21993;42.672;23.296;2023-06-05T03:04:33;95139.78;;;16.65;77.36
35892;BME280;21993;42.672;23.296;2023-06-05T03:06:59;95146.06;;;16.64;77.28
35892;BME280;21993;42.672;23.296;2023-06-05T03:09:28;95140.25;;;16.60;77.54
35892;BME280;21993;42.672;23.296;2023-06-05T03:11:54;95150.00;;;16.52;78.29
35892;BME280;21993;42.672;23.296;2023-06-05T03:14:19;95152.19;;;16.56;78.26
35892;BME280;21993;42.672;23.296;2023-06-05T03:16:45;95159.16;;;16.57;78.26
35892;BME280;21993;42.672;23.296;2023-06-05T03:19:11;95146.38;;;16.61;77.88
35892;BME280;21993;42.672;23.296;2023-06-05T03:21:40;95150.19;;;16.58;77.78
35892;BME280;21993;42.672;23.296;2023-06-05T03:24:11;95151.69;;;16.61;77.43
35892;BME280;21993;42.672;23.296;2023-06-05T03:26:41;95158.00;;;16.60;77.42
35892;BME280;21993;42.672;23.296;2023-06-05T03:29:08;95160.81;;;16.58;77.42
35892;BME280;21993;42.672;23.296;2023-06-05T03:31:33;95167.09;;;16.57;78.08
35892;BME280;21993;42.672;23.296;2023-06-05T03:33:59;95167.09;;;16.57;78.76
35892;BME280;21993;42.672;23.296;2023-06-05T03:36:25;95154.84;;;16.56;78.82
35892;BME280;21993;42.672;23.296;2023-06-05T03:38:53;95165.94;;;16.60;79.44
35892;BME280;21993;42.672;23.296;2023-06-05T03:41:18;95172.22;;;16.59;79.57
35892;BME280;21993;42.672;23.296;2023-06-05T03:43:43;95170.41;;;16.59;79.92
35892;BME280;21993;42.672;23.296;2023-06-05T03:46:09;95161.13;;;16.64;80.07
35892;BME280;21993;42.672;23.296;2023-06-05T03:48:35;95163.78;;;16.64;80.18
35892;BME280;21993;42.672;23.296;2023-06-05T03:51:00;95151.88;;;16.68;80.04
35892;BME280;21993;42.672;23.296;2023-06-05T03:53:26;95156.72;;;16.72;80.16
35892;BME280;21993;42.672;23.296;2023-06-05T03:55:54;95159.88;;;16.76;79.94
35892;BME280;21993;42.672;23.296;2023-06-05T03:58:20;95163.69;;;16.73;80.06
35892;BME280;21993;42.672;23.296;2023-06-05T04:00:47;95168.00;;;16.74;80.23
35892;BME280;21993;42.672;23.296;2023-06-05T04:03:16;95166.03;;;16.76;80.47
35892;BME280;21993;42.672;23.296;2023-06-05T04:05:41;95164.03;;;16.78;80.61
35892;BME280;21993;42.672;23.296;2023-06-05T04:08:08;95163.84;;;16.80;80.47
35892;BME280;21993;42.672;23.296;2023-06-05T04:10:34;95169.16;;;16.80;80.56
35892;BME280;21993;42.672;23.296;2023-06-05T04:13:00;95158.72;;;16.78;80.98
35892;BME280;21993;42.672;23.296;2023-06-05T04:15:27;95162.88;;;16.81;80.84
35892;BME280;21993;42.672;23.296;2023-06-05T04:17:53;95161.56;;;16.85;81.43
35892;BME280;21993;42.672;23.296;2023-06-05T04:20:18;95171.84;;;16.88;81.59
35892;BME280;21993;42.672;23.296;2023-06-05T04:22:44;95167.53;;;16.87;81.46
35892;BME280;21993;42.672;23.296;2023-06-05T04:25:11;95167.88;;;16.92;81.70
35892;BME280;21993;42.672;23.296;2023-06-05T04:27:42;95171.84;;;16.96;81.68
35892;BME280;21993;42.672;23.296;2023-06-05T04:30:09;95163.59;;;16.99;81.59
35892;BME280;21993;42.672;23.296;2023-06-05T04:32:36;95175.50;;;17.03;81.67
35892;BME280;21993;42.672;23.296;2023-06-05T04:35:08;95158.94;;;17.01;81.97
35892;BME280;21993;42.672;23.296;2023-06-05T04:37:35;95154.63;;;17.08;81.76
35892;BME280;21993;42.672;23.296;2023-06-05T04:40:01;95159.59;;;17.11;81.72
35892;BME280;21993;42.672;23.296;2023-06-05T04:42:36;95161.63;;;17.17;81.48
35892;BME280;21993;42.672;23.296;2023-06-05T04:45:03;95156.13;;;17.19;81.50
35892;BME280;21993;42.672;23.296;2023-06-05T04:47:30;95155.31;;;17.19;81.59
35892;BME280;21993;42.672;23.296;2023-06-05T04:50:00;95157.97;;;17.27;81.35
35892;BME280;21993;42.672;23.296;2023-06-05T04:52:29;95160.97;;;17.24;82.01
35892;BME280;21993;42.672;23.296;2023-06-05T04:54:54;95173.22;;;17.25;81.82
35892;BME280;21993;42.672;23.296;2023-06-05T04:57:20;95171.88;;;17.29;81.74
35892;BME280;21993;42.672;23.296;2023-06-05T04:59:45;95169.41;;;17.27;81.34
35892;BME280;21993;42.672;23.296;2023-06-05T05:02:12;95167.22;;;17.31;81.65
35892;BME280;21993;42.672;23.296;2023-06-05T05:04:37;95170.88;;;17.30;82.11
35892;BME280;21993;42.672;23.296;2023-06-05T05:07:03;95164.28;;;17.34;82.32
35892;BME280;21993;42.672;23.296;2023-06-05T05:09:30;95163.94;;;17.37;82.11
35892;BME280;21993;42.672;23.296;2023-06-05T05:11:58;95166.75;;;17.35;82.20
35892;BME280;21993;42.672;23.296;2023-06-05T05:14:25;95169.59;;;17.34;82.43
35892;BME280;21993;42.672;23.296;2023-06-05T05:16:54;95163.59;;;17.40;82.41
35892;BME280;21993;42.672;23.296;2023-06-05T05:19:20;95162.09;;;17.45;82.06
35892;BME280;21993;42.672;23.296;2023-06-05T05:21:47;95166.75;;;17.60;82.02
35892;BME280;21993;42.672;23.296;2023-06-05T05:24:13;95153.97;;;17.71;81.08
35892;BME280;21993;42.672;23.296;2023-06-05T05:26:38;95163.47;;;17.74;80.71
35892;BME280;21993;42.672;23.296;2023-06-05T05:29:05;95155.81;;;17.71;81.01
35892;BME280;21993;42.672;23.296;2023-06-05T05:31:31;95155.13;;;17.77;80.94
35892;BME280;21993;42.672;23.296;2023-06-05T05:33:57;95155.94;;;17.94;80.32
35892;BME280;21993;42.672;23.296;2023-06-05T05:36:26;95159.44;;;17.86;79.91
35892;BME280;21993;42.672;23.296;2023-06-05T05:38:52;95165.09;;;17.83;80.97
35892;BME280;21993;42.672;23.296;2023-06-05T05:41:17;95164.06;;;18.00;80.22
35892;BME280;21993;42.672;23.296;2023-06-05T05:43:43;95163.25;;;17.92;80.38
35892;BME280;21993;42.672;23.296;2023-06-05T05:46:08;95154.75;;;17.96;81.24
35892;BME280;21993;42.672;23.296;2023-06-05T05:48:37;95154.41;;;18.08;80.91
35892;BME280;21993;42.672;23.296;2023-06-05T05:51:04;95158.22;;;18.05;81.15
35892;BME280;21993;42.672;23.296;2023-06-05T05:53:30;95153.91;;;18.04;81.15
35892;BME280;21993;42.672;23.296;2023-06-05T05:55:56;95149.38;;;18.21;79.53
35892;BME280;21993;42.672;23.296;2023-06-05T05:58:21;95147.91;;;18.18;80.17
35892;BME280;21993;42.672;23.296;2023-06-05T06:00:46;95147.09;;;18.10;81.45
35892;BME280;21993;42.672;23.296;2023-06-05T06:03:13;95144.06;;;18.21;81.21
35892;BME280;21993;42.672;23.296;2023-06-05T06:05:40;95146.53;;;18.22;81.15
35892;BME280;21993;42.672;23.296;2023-06-05T06:08:05;95147.13;;;18.41;80.09
35892;BME280;21993;42.672;23.296;2023-06-05T06:10:31;95141.13;;;18.47;80.34
35892;BME280;21993;42.672;23.296;2023-06-05T06:12:57;95141.91;;;18.55;80.29
35892;BME280;21993;42.672;23.296;2023-06-05T06:15:23;95148.31;;;18.77;79.20
35892;BME280;21993;42.672;23.296;2023-06-05T06:17:48;95154.94;;;18.81;79.61
35892;BME280;21993;42.672;23.296;2023-06-05T06:20:14;95136.41;;;19.19;76.40
35892;BME280;21993;42.672;23.296;2023-06-05T06:22:41;95148.47;;;19.07;77.57
35892;BME280;21993;42.672;23.296;2023-06-05T06:25:09;95145.81;;;19.30;76.31
35892;BME280;21993;42.672;23.296;2023-06-05T06:27:35;95139.97;;;19.34;76.54
35892;BME280;21993;42.672;23.296;2023-06-05T06:30:01;95131.59;;;19.37;75.76
35892;BME280;21993;42.672;23.296;2023-06-05T06:32:27;95135.09;;;19.38;74.83
35892;BME280;21993;42.672;23.296;2023-06-05T06:34:52;95140.03;;;19.41;75.00
35892;BME280;21993;42.672;23.296;2023-06-05T06:37:19;95138.06;;;19.43;74.02
35892;BME280;21993;42.672;23.296;2023-06-05T06:39:46;95138.88;;;19.44;74.87
35892;BME280;21993;42.672;23.296;2023-06-05T06:42:12;95130.81;;;19.52;73.85
35892;BME280;21993;42.672;23.296;2023-06-05T06:44:40;95134.66;;;19.49;73.25
35892;BME280;21993;42.672;23.296;2023-06-05T06:47:06;95134.50;;;19.51;73.87
35892;BME280;21993;42.672;23.296;2023-06-05T06:49:33;95127.44;;;19.58;72.90
35892;BME280;21993;42.672;23.296;2023-06-05T06:51:59;95129.69;;;19.46;73.20
35892;BME280;21993;42.672;23.296;2023-06-05T06:54:24;95127.44;;;19.58;73.06
35892;BME280;21993;42.672;23.296;2023-06-05T06:56:56;95128.94;;;19.60;73.36
35892;BME280;21993;42.672;23.296;2023-06-05T06:59:22;95123.06;;;19.65;73.02
35892;BME280;21993;42.672;23.296;2023-06-05T07:02:08;95125.19;;;19.70;72.94
35892;BME280;21993;42.672;23.296;2023-06-05T07:04:34;95117.03;;;19.86;71.34
35892;BME280;21993;42.672;23.296;2023-06-05T07:07:00;95121.16;;;19.88;71.01
35892;BME280;21993;42.672;23.296;2023-06-05T07:09:26;95116.47;;;19.90;71.24
35892;BME280;21993;42.672;23.296;2023-06-05T07:11:53;95119.34;;;20.04;70.15
35892;BME280;21993;42.672;23.296;2023-06-05T07:14:19;95116.75;;;19.95;71.12
35892;BME280;21993;42.672;23.296;2023-06-05T07:16:45;95113.44;;;20.08;70.05
35892;BME280;21993;42.672;23.296;2023-06-05T07:19:12;95123.75;;;20.11;69.90
35892;BME280;21993;42.672;23.296;2023-06-05T07:21:37;95111.06;;;20.28;69.52
35892;BME280;21993;42.672;23.296;2023-06-05T07:24:04;95109.41;;;20.27;69.55
35892;BME280;21993;42.672;23.296;2023-06-05T07:26:29;95116.22;;;20.30;69.45
35892;BME280;21993;42.672;23.296;2023-06-05T07:28:55;95120.97;;;20.34;68.53
35892;BME280;21993;42.672;23.296;2023-06-05T07:31:21;95115.47;;;20.36;69.07
35892;BME280;21993;42.672;23.296;2023-06-05T07:33:46;95122.16;;;20.32;68.90
35892;BME280;21993;42.672;23.296;2023-06-05T07:36:13;95125.31;;;20.35;68.88
35892;BME280;21993;42.672;23.296;2023-06-05T07:38:38;95129.34;;;20.31;69.43
35892;BME280;21993;42.672;23.296;2023-06-05T07:41:05;95128.81;;;20.36;69.98
35892;BME280;21993;42.672;23.296;2023-06-05T07:43:31;95127.50;;;20.32;70.16
35892;BME280;21993;42.672;23.296;2023-06-05T07:45:56;95131.53;;;20.42;69.25
35892;BME280;21993;42.672;23.296;2023-06-05T07:48:22;95129.25;;;20.39;70.50
35892;BME280;21993;42.672;23.296;2023-06-05T07:50:47;95132.56;;;20.41;70.74
35892;BME280;21993;42.672;23.296;2023-06-05T07:53:12;95137.06;;;20.56;69.06
35892;BME280;21993;42.672;23.296;2023-06-05T07:55:38;95137.81;;;20.64;68.49
35892;BME280;21993;42.672;23.296;2023-06-05T07:58:03;95138.13;;;20.76;67.33
35892;BME280;21993;42.672;23.296;2023-06-05T08:00:29;95133.47;;;20.78;68.14
35892;BME280;21993;42.672;23.296;2023-06-05T08:02:54;95135.84;;;20.73;68.11
35892;BME280;21993;42.672;23.296;2023-06-05T08:05:20;95136.19;;;20.85;68.38
35892;BME280;21993;42.672;23.296;2023-06-05T08:07:46;95142.47;;;20.77;68.84
35892;BME280;21993;42.672;23.296;2023-06-05T08:10:12;95134.81;;;20.89;67.93
35892;BME280;21993;42.672;23.296;2023-06-05T08:12:38;95146.69;;;20.86;68.00
35892;BME280;21993;42.672;23.296;2023-06-05T08:15:04;95137.84;;;20.86;68.28
35892;BME280;21993;42.672;23.296;2023-06-05T08:17:31;95141.41;;;20.93;68.06
35892;BME280;21993;42.672;23.296;2023-06-05T08:19:57;95138.63;;;21.01;67.48
35892;BME280;21993;42.672;23.296;2023-06-05T08:22:22;95137.97;;;20.99;68.09
35892;BME280;21993;42.672;23.296;2023-06-05T08:24:48;95136.78;;;21.01;68.02
35892;BME280;21993;42.672;23.296;2023-06-05T08:27:15;95144.34;;;20.98;67.79
35892;BME280;21993;42.672;23.296;2023-06-05T08:29:41;95146.38;;;21.17;66.69
35892;BME280;21993;42.672;23.296;2023-06-05T08:32:06;95151.38;;;21.20;65.25
35892;BME280;21993;42.672;23.296;2023-06-05T08:34:32;95149.53;;;21.21;66.19
35892;BME280;21993;42.672;23.296;2023-06-05T08:36:58;95144.13;;;21.35;64.75
35892;BME280;21993;42.672;23.296;2023-06-05T08:39:24;95151.97;;;21.37;65.17
35892;BME280;21993;42.672;23.296;2023-06-05T08:41:53;95148.22;;;21.31;65.83
35892;BME280;21993;42.672;23.296;2023-06-05T08:44:20;95155.78;;;21.28;66.24
35892;BME280;21993;42.672;23.296;2023-06-05T08:46:46;95152.47;;;21.47;65.52
35892;BME280;21993;42.672;23.296;2023-06-05T08:49:16;95156.66;;;21.35;66.74
35892;BME280;21993;42.672;23.296;2023-06-05T08:51:43;95151.31;;;21.35;66.39
35892;BME280;21993;42.672;23.296;2023-06-05T08:54:10;95153.03;;;21.43;64.96
35892;BME280;21993;42.672;23.296;2023-06-05T08:56:42;95160.22;;;21.42;65.17
35892;BME280;21993;42.672;23.296;2023-06-05T08:59:10;95154.69;;;21.44;65.49
35892;BME280;21993;42.672;23.296;2023-06-05T09:01:35;95150.75;;;21.40;65.99
35892;BME280;21993;42.672;23.296;2023-06-05T09:04:02;95150.06;;;21.31;65.91
35892;BME280;21993;42.672;23.296;2023-06-05T09:06:28;95152.13;;;21.35;66.14
35892;BME280;21993;42.672;23.296;2023-06-05T09:08:53;95156.09;;;21.40;65.78
35892;BME280;21993;42.672;23.296;2023-06-05T09:13:49;95159.03;;;21.45;64.50
35892;BME280;21993;42.672;23.296;2023-06-05T09:16:15;95162.53;;;21.45;64.87
35892;BME280;21993;42.672;23.296;2023-06-05T09:18:56;95159.03;;;21.45;65.25
35892;BME280;21993;42.672;23.296;2023-06-05T09:21:23;95157.34;;;21.44;65.83
35892;BME280;21993;42.672;23.296;2023-06-05T09:24:10;95152.69;;;21.52;65.51
35892;BME280;21993;42.672;23.296;2023-06-05T09:27:00;95156.47;;;21.58;66.06
35892;BME280;21993;42.672;23.296;2023-06-05T09:29:45;95153.22;;;21.62;67.02
35892;BME280;21993;42.672;23.296;2023-06-05T09:34:40;95154.00;;;21.56;65.59
35892;BME280;21993;42.672;23.296;2023-06-05T09:37:08;95154.75;;;21.50;66.52
35892;BME280;21993;42.672;23.296;2023-06-05T09:39:36;95148.63;;;21.56;66.57
35892;BME280;21993;42.672;23.296;2023-06-05T09:42:02;95154.00;;;21.56;66.56
35892;BME280;21993;42.672;23.296;2023-06-05T09:44:29;95145.63;;;21.66;64.47
35892;BME280;21993;42.672;23.296;2023-06-05T09:46:58;95150.34;;;21.64;64.95
35892;BME280;21993;42.672;23.296;2023-06-05T09:49:26;95154.28;;;21.68;64.21
35892;BME280;21993;42.672;23.296;2023-06-05T09:51:52;95146.78;;;21.78;63.67
35892;BME280;21993;42.672;23.296;2023-06-05T09:54:20;95146.31;;;21.75;64.38
35892;BME280;21993;42.672;23.296;2023-06-05T09:56:48;95140.78;;;21.76;64.70
35892;BME280;21993;42.672;23.296;2023-06-05T09:59:21;95136.09;;;21.78;65.28
35892;BME280;21993;42.672;23.296;2023-06-05T10:01:49;95131.72;;;21.71;65.68
35892;BME280;21993;42.672;23.296;2023-06-05T10:04:16;95135.84;;;21.73;66.42
35892;BME280;21993;42.672;23.296;2023-06-05T10:06:44;95139.06;;;21.69;67.16
35892;BME280;21993;42.672;23.296;2023-06-05T10:09:10;95144.88;;;21.72;67.46
35892;BME280;21993;42.672;23.296;2023-06-05T10:11:36;95128.50;;;21.54;67.66
35892;BME280;21993;42.672;23.296;2023-06-05T10:14:05;95133.69;;;21.41;67.13
35892;BME280;21993;42.672;23.296;2023-06-05T10:16:32;95143.97;;;21.37;66.29
35892;BME280;21993;42.672;23.296;2023-06-05T10:18:59;95132.47;;;21.43;65.93
35892;BME280;21993;42.672;23.296;2023-06-05T10:21:25;95134.16;;;21.44;66.27
35892;BME280;21993;42.672;23.296;2023-06-05T10:23:56;95136.66;;;21.52;66.38
35892;BME280;21993;42.672;23.296;2023-06-05T10:29:18;95128.00;;;21.72;67.91
35892;BME280;21993;42.672;23.296;2023-06-05T10:37:41;95121.72;;;21.58;68.22
35892;BME280;21993;42.672;23.296;2023-06-05T10:40:09;95122.69;;;21.50;67.87
35892;BME280;21993;42.672;23.296;2023-06-05T10:42:36;95119.69;;;21.60;67.02
35892;BME280;21993;42.672;23.296;2023-06-05T10:45:02;95118.22;;;21.57;67.24
35892;BME280;21993;42.672;23.296;2023-06-05T10:52:47;95113.56;;;21.38;66.86
35892;BME280;21993;42.672;23.296;2023-06-05T10:55:13;95112.59;;;21.46;67.10
35892;BME280;21993;42.672;23.296;2023-06-05T11:00:26;95099.88;;;21.76;64.89
35892;BME280;21993;42.672;23.296;2023-06-05T11:02:52;95105.00;;;21.71;64.88
35892;BME280;21993;42.672;23.296;2023-06-05T11:05:18;95098.22;;;21.75;63.83
35892;BME280;21993;42.672;23.296;2023-06-05T11:07:44;95105.56;;;21.66;63.69
35892;BME280;21993;42.672;23.296;2023-06-05T11:10:18;95098.75;;;21.63;63.59
35892;BME280;21993;42.672;23.296;2023-06-05T11:15:15;95089.91;;;21.91;62.75
35892;BME280;21993;42.672;23.296;2023-06-05T11:17:43;95082.41;;;22.08;60.48
35892;BME280;21993;42.672;23.296;2023-06-05T11:27:54;95073.50;;;22.35;59.26
35892;BME280;21993;42.672;23.296;2023-06-05T11:30:22;95065.13;;;22.45;58.81
35892;BME280;21993;42.672;23.296;2023-06-05T11:32:49;95075.16;;;22.36;59.86
35892;BME280;21993;42.672;23.296;2023-06-05T11:35:20;95073.53;;;22.42;59.65
35892;BME280;21993;42.672;23.296;2023-06-05T11:37:46;95069.00;;;22.42;59.37
35892;BME280;21993;42.672;23.296;2023-06-05T11:40:23;95067.81;;;22.52;59.46
35892;BME280;21993;42.672;23.296;2023-06-05T11:42:49;95064.53;;;22.56;59.90
35892;BME280;21993;42.672;23.296;2023-06-05T11:45:15;95057.81;;;22.80;58.89
35892;BME280;21993;42.672;23.296;2023-06-05T11:47:41;95049.78;;;22.80;58.64
35892;BME280;21993;42.672;23.296;2023-06-05T11:50:13;95048.13;;;22.79;59.89
35892;BME280;21993;42.672;23.296;2023-06-05T11:52:40;95057.81;;;22.80;59.46
35892;BME280;21993;42.672;23.296;2023-06-05T11:57:43;95046.56;;;23.05;59.83
35892;BME280;21993;42.672;23.296;2023-06-05T12:00:10;95048.00;;;23.20;58.07
35892;BME280;21993;42.672;23.296;2023-06-05T12:02:40;95044.72;;;23.25;57.79
35892;BME280;21993;42.672;23.296;2023-06-05T12:05:07;95048.00;;;23.20;58.81
35892;BME280;21993;42.672;23.296;2023-06-05T12:07:36;95042.63;;;23.20;58.56
35892;BME280;21993;42.672;23.296;2023-06-05T12:10:06;95043.88;;;23.18;58.15
35892;BME280;21993;42.672;23.296;2023-06-05T12:12:51;95040.63;;;23.29;56.09
35892;BME280;21993;42.672;23.296;2023-06-05T12:15:18;95036.25;;;23.35;57.03
35892;BME280;21993;42.672;23.296;2023-06-05T12:17:56;95026.97;;;23.50;57.02
35892;BME280;21993;42.672;23.296;2023-06-05T12:20:22;95025.72;;;23.53;55.92
35892;BME280;21993;42.672;23.296;2023-06-05T12:22:48;95026.59;;;23.47;57.15
35892;BME280;21993;42.672;23.296;2023-06-05T12:25:23;95029.66;;;23.50;56.32
35892;BME280;21993;42.672;23.296;2023-06-05T12:27:48;95030.06;;;23.54;56.54
35892;BME280;21993;42.672;23.296;2023-06-05T12:30:15;95024.50;;;23.49;56.57
35892;BME280;21993;42.672;23.296;2023-06-05T12:32:43;95027.19;;;23.55;56.47
35892;BME280;21993;42.672;23.296;2023-06-05T12:35:22;95025.75;;;23.59;56.04
35892;BME280;21993;42.672;23.296;2023-06-05T12:37:49;95016.06;;;23.58;56.31
35892;BME280;21993;42.672;23.296;2023-06-05T12:40:15;95012.16;;;23.61;56.39
35892;BME280;21993;42.672;23.296;2023-06-05T12:42:46;94995.25;;;23.67;56.52
35892;BME280;21993;42.672;23.296;2023-06-05T12:45:13;94996.88;;;23.62;56.24
35892;BME280;21993;42.672;23.296;2023-06-05T12:47:39;94988.84;;;23.62;57.57
35892;BME280;21993;42.672;23.296;2023-06-05T12:50:07;94986.97;;;23.82;56.18
35892;BME280;21993;42.672;23.296;2023-06-05T12:52:33;94980.94;;;23.86;55.80
35892;BME280;21993;42.672;23.296;2023-06-05T12:54:59;94991.28;;;23.90;55.52
35892;BME280;21993;42.672;23.296;2023-06-05T12:57:25;94984.22;;;23.95;55.45
35892;BME280;21993;42.672;23.296;2023-06-05T12:59:52;94979.91;;;23.94;55.21
35892;BME280;21993;42.672;23.296;2023-06-05T13:02:19;94990.81;;;23.99;55.75
35892;BME280;21993;42.672;23.296;2023-06-05T13:04:44;94984.41;;;24.07;55.41
35892;BME280;21993;42.672;23.296;2023-06-05T13:07:11;94981.69;;;24.13;54.78
35892;BME280;21993;42.672;23.296;2023-06-05T13:09:36;94993.25;;;24.14;54.39
35892;BME280;21993;42.672;23.296;2023-06-05T13:12:02;94988.28;;;24.11;54.04
35892;BME280;21993;42.672;23.296;2023-06-05T13:14:29;94979.44;;;24.04;54.04
35892;BME280;21993;42.672;23.296;2023-06-05T13:16:56;94978.44;;;24.05;55.10
35892;BME280;21993;42.672;23.296;2023-06-05T13:19:22;94974.09;;;24.04;54.76
35892;BME280;21993;42.672;23.296;2023-06-05T13:21:48;94980.25;;;24.11;54.49
35892;BME280;21993;42.672;23.296;2023-06-05T13:24:13;94970.41;;;23.98;54.04
35892;BME280;21993;42.672;23.296;2023-06-05T13:26:38;94969.75;;;24.03;55.02